Time;durP1;ratioP1;P1;durP2;ratioP2;P2;SDS_P1;SDS_P2;PMS_P1;PMS_P2;Temp;Humidity;BMP_temperature;BMP_pressure;BME280_temperature;BME280_humidity;BME280_pressure;Samples;Min_cycle;Max_cycle;Signal;HPM_P1;HPM_P2
2023/10/25 00:00:38;;;;;;;40.30;35.45;;;9.30;99.90;;;;;;5059017;28;20051;-86
2023/10/25 00:03:04;;;;;;;45.35;39.90;;;8.60;99.90;;;;;;5076067;28;20048;-86
2023/10/25 00:05:33;;;;;;;47.20;41.97;;;9.30;99.90;;;;;;5075204;28;20042;-86
2023/10/25 00:07:59;;;;;;;50.08;43.30;;;8.50;99.90;;;;;;5058601;28;20094;-86
2023/10/25 00:10:24;;;;;;;44.22;38.90;;;9.50;99.90;;;;;;5058934;28;20040;-86
2023/10/25 00:12:50;;;;;;;47.75;39.47;;;9.20;99.90;;;;;;5058797;28;20060;-86
2023/10/25 00:15:16;;;;;;;41.65;37.42;;;8.80;99.90;;;;;;5075195;28;20131;-86
2023/10/25 00:17:41;;;;;;;43.20;33.35;;;8.50;99.90;;;;;;5058777;28;20497;-86
2023/10/25 00:20:07;;;;;;;41.92;35.75;;;9.30;99.90;;;;;;5075624;28;20048;-86
2023/10/25 00:22:33;;;;;;;55.08;49.92;;;8.50;99.90;;;;;;5075147;28;20040;-85
2023/10/25 00:24:59;;;;;;;41.00;35.05;;;9.30;99.90;;;;;;5075122;28;20379;-86
2023/10/25 00:27:24;;;;;;;50.47;36.15;;;8.60;99.90;;;;;;5057327;28;20029;-86
2023/10/25 00:29:50;;;;;;;44.63;38.25;;;8.50;99.90;;;;;;5057444;28;20033;-85
2023/10/25 00:32:16;;;;;;;41.88;35.75;;;9.20;99.90;;;;;;5058150;28;20051;-86
2023/10/25 00:34:42;;;;;;;42.40;37.72;;;8.40;99.90;;;;;;5057597;28;20056;-86
2023/10/25 00:37:07;;;;;;;45.08;38.05;;;8.50;99.90;;;;;;5057583;28;20139;-86
2023/10/25 00:39:33;;;;;;;50.20;37.20;;;8.50;99.90;;;;;;5057663;28;20046;-86
2023/10/25 00:41:59;;;;;;;52.70;47.85;;;8.40;99.90;;;;;;5058297;28;20033;-85
2023/10/25 00:44:25;;;;;;;44.60;39.85;;;9.40;99.90;;;;;;5057362;28;20291;-85
2023/10/25 00:46:50;;;;;;;43.50;38.85;;;8.80;99.90;;;;;;5057644;28;20539;-87
2023/10/25 00:49:17;;;;;;;46.83;38.22;;;8.40;99.90;;;;;;5057437;28;20123;-86
2023/10/25 00:51:42;;;;;;;45.20;37.30;;;8.20;99.90;;;;;;5074252;28;20117;-86
2023/10/25 00:54:09;;;;;;;45.20;37.40;;;9.20;99.90;;;;;;5057257;28;20049;-86
2023/10/25 00:56:36;;;;;;;45.00;37.88;;;9.40;99.90;;;;;;5056750;28;20080;-86
2023/10/25 00:59:02;;;;;;;44.40;38.53;;;8.10;99.90;;;;;;5056940;28;20097;-86
2023/10/25 01:01:29;;;;;;;42.95;37.17;;;9.20;99.90;;;;;;5057550;28;20051;-86
2023/10/25 01:03:55;;;;;;;48.33;40.33;;;8.20;99.90;;;;;;5073714;28;20090;-86
2023/10/25 01:06:21;;;;;;;41.78;36.75;;;9.00;99.90;;;;;;5073310;28;20040;-86
2023/10/25 01:08:47;;;;;;;48.53;41.00;;;8.50;99.90;;;;;;5057013;28;20071;-86
2023/10/25 01:11:13;;;;;;;47.42;39.17;;;8.00;99.90;;;;;;5073825;28;20041;-85
2023/10/25 01:13:39;;;;;;;41.85;36.80;;;8.00;99.90;;;;;;5056440;28;20032;-86
2023/10/25 01:16:04;;;;;;;43.13;35.67;;;8.00;99.90;;;;;;5056787;28;20037;-86
2023/10/25 01:18:31;;;;;;;42.72;38.35;;;8.00;99.90;;;;;;5073434;28;20045;-86
2023/10/25 01:20:56;;;;;;;41.63;37.55;;;9.10;99.90;;;;;;5056700;28;20036;-86
2023/10/25 01:23:22;;;;;;;41.17;35.65;;;7.90;99.90;;;;;;5056302;28;20387;-85
2023/10/25 01:25:48;;;;;;;49.10;42.95;;;8.90;99.90;;;;;;5056255;28;20120;-86
2023/10/25 01:28:14;;;;;;;46.83;42.20;;;9.10;99.90;;;;;;5056893;28;20044;-86
2023/10/25 01:30:40;;;;;;;43.78;39.35;;;9.00;99.90;;;;;;5056768;28;20040;-87
2023/10/25 01:33:06;;;;;;;42.13;37.85;;;8.90;99.90;;;;;;5056624;28;20036;-85
2023/10/25 01:35:33;;;;;;;49.33;44.30;;;8.30;99.90;;;;;;5055721;28;20064;-86
2023/10/25 01:37:59;;;;;;;39.70;35.47;;;8.40;99.90;;;;;;5055637;28;20044;-86
2023/10/25 01:40:24;;;;;;;39.05;34.70;;;8.20;99.90;;;;;;5055802;28;20100;-86
2023/10/25 01:42:54;;;;;;;40.60;36.38;;;7.80;99.90;;;;;;5055705;28;20067;-86
2023/10/25 01:45:22;;;;;;;45.80;38.75;;;7.90;99.90;;;;;;5055149;28;20124;-86
2023/10/25 01:47:47;;;;;;;36.08;32.53;;;8.70;99.90;;;;;;5055906;28;20047;-86
2023/10/25 01:50:13;;;;;;;37.30;33.55;;;8.50;99.90;;;;;;5055851;28;20041;-86
2023/10/25 01:52:39;;;;;;;42.13;36.58;;;8.20;99.90;;;;;;5073164;28;20420;-86
2023/10/25 01:55:05;;;;;;;56.25;51.30;;;7.70;99.90;;;;;;5056529;28;20041;-86
2023/10/25 01:57:30;;;;;;;37.60;33.70;;;7.70;99.90;;;;;;5055538;28;20494;-85
2023/10/25 01:59:56;;;;;;;42.50;36.25;;;8.70;99.90;;;;;;5072150;28;20040;-86
2023/10/25 02:02:22;;;;;;;44.88;37.22;;;7.70;99.90;;;;;;5072548;28;20036;-87
2023/10/25 02:04:47;;;;;;;43.83;38.03;;;8.30;99.90;;;;;;5072066;28;20052;-86
2023/10/25 02:07:13;;;;;;;40.42;35.60;;;9.00;99.90;;;;;;5055865;28;20048;-85
2023/10/25 02:09:39;;;;;;;41.00;33.80;;;7.70;99.90;;;;;;5071991;28;20083;-86
2023/10/25 02:12:04;;;;;;;43.88;35.42;;;9.00;99.90;;;;;;5071311;28;20036;-86
2023/10/25 02:14:32;;;;;;;45.15;40.35;;;7.70;99.90;;;;;;5055397;28;20056;-86
2023/10/25 02:16:58;;;;;;;42.88;34.60;;;8.90;99.90;;;;;;5055793;28;20049;-85
2023/10/25 02:19:23;;;;;;;51.10;32.00;;;8.90;99.90;;;;;;5055988;28;20049;-86
2023/10/25 02:21:49;;;;;;;44.70;39.80;;;7.40;99.90;;;;;;5055152;28;20041;-86
2023/10/25 02:24:15;;;;;;;50.15;37.60;;;8.10;99.90;;;;;;5055192;28;20072;-85
2023/10/25 02:26:42;;;;;;;43.75;35.83;;;8.80;99.90;;;;;;5071720;28;20080;-86
2023/10/25 02:29:07;;;;;;;46.70;33.35;;;6.70;99.90;;;;;;5054867;28;20473;-85
2023/10/25 02:31:34;;;;;;;50.08;38.78;;;7.80;99.90;;;;;;5071905;28;20064;-85
2023/10/25 02:33:59;;;;;;;43.70;37.92;;;7.50;99.90;;;;;;5054859;28;20329;-85
2023/10/25 02:36:25;;;;;;;49.72;35.13;;;7.60;99.90;;;;;;5071128;28;20140;-86
2023/10/25 02:38:51;;;;;;;44.55;38.67;;;7.60;99.90;;;;;;5054968;28;20308;-85
2023/10/25 02:41:17;;;;;;;49.00;38.35;;;8.20;99.90;;;;;;5054478;28;20190;-85
2023/10/25 02:43:43;;;;;;;52.03;43.83;;;7.60;99.90;;;;;;5071629;28;20039;-85
2023/10/25 02:46:11;;;;;;;52.17;38.55;;;7.60;99.90;;;;;;5055135;28;20037;-86
2023/10/25 02:48:37;;;;;;;61.50;41.65;;;7.60;99.90;;;;;;5071577;28;20051;-85
2023/10/25 02:51:03;;;;;;;51.15;36.95;;;8.80;99.90;;;;;;5055320;28;20040;-86
2023/10/25 02:53:29;;;;;;;52.92;40.83;;;8.10;99.90;;;;;;5057568;28;20177;-86
2023/10/25 02:56:04;;;;;;;58.55;40.35;;;7.60;99.90;;;;;;5054263;28;20037;-86
2023/10/25 02:58:31;;;;;;;57.53;38.90;;;8.50;99.90;;;;;;5038796;28;20040;-85
2023/10/25 03:00:57;;;;;;;49.95;39.47;;;7.60;99.90;;;;;;5055050;28;20127;-85
2023/10/25 03:03:24;;;;;;;59.33;43.03;;;7.60;99.90;;;;;;5038322;28;20506;-85
2023/10/25 03:05:49;;;;;;;60.45;46.28;;;6.70;99.90;;;;;;5038890;28;20491;-86
2023/10/25 03:08:15;;;;;;;51.42;41.08;;;7.50;99.90;;;;;;5055050;28;20086;-86
2023/10/25 03:10:41;;;;;;;65.38;37.13;;;7.60;99.90;;;;;;5037823;28;20063;-86
2023/10/25 03:13:06;;;;;;;61.60;41.55;;;8.30;99.90;;;;;;5055792;28;20415;-85
2023/10/25 03:15:32;;;;;;;55.10;39.97;;;8.40;99.90;;;;;;5038387;28;20106;-86
2023/10/25 03:17:58;;;;;;;63.63;40.28;;;8.70;99.90;;;;;;5055567;28;20310;-85
2023/10/25 03:20:24;;;;;;;56.38;40.63;;;7.50;99.90;;;;;;5055268;28;20391;-86
2023/10/25 03:22:49;;;;;;;56.85;40.97;;;8.30;99.90;;;;;;5054753;28;20033;-86
2023/10/25 03:25:16;;;;;;;59.25;45.17;;;8.70;99.90;;;;;;5038293;28;20072;-86
2023/10/25 03:27:41;;;;;;;68.28;44.58;;;8.40;99.90;;;;;;5038078;28;20041;-85
2023/10/25 03:30:08;;;;;;;62.00;45.50;;;8.70;99.90;;;;;;5054882;28;20461;-86
2023/10/25 03:32:33;;;;;;;62.38;44.55;;;7.40;99.90;;;;;;5038220;28;20509;-86
2023/10/25 03:34:59;;;;;;;66.35;51.03;;;7.90;99.90;;;;;;5054901;28;20048;-86
2023/10/25 03:37:25;;;;;;;61.78;43.20;;;7.50;99.90;;;;;;5038088;28;20144;-85
2023/10/25 03:39:51;;;;;;;63.13;44.20;;;7.50;99.90;;;;;;5038567;28;20045;-85
2023/10/25 03:42:16;;;;;;;68.13;48.17;;;7.60;99.90;;;;;;5037945;28;20044;-85
2023/10/25 03:44:42;;;;;;;68.68;50.22;;;7.40;99.90;;;;;;5054539;28;20036;-86
2023/10/25 03:47:08;;;;;;;73.10;49.85;;;8.50;99.90;;;;;;5054972;28;20513;-86
2023/10/25 03:49:33;;;;;;;70.55;47.80;;;7.50;99.90;;;;;;5038000;28;20037;-86
2023/10/25 03:51:59;;;;;;;62.40;38.78;;;7.60;99.90;;;;;;5054069;28;20047;-85
2023/10/25 03:54:25;;;;;;;56.22;39.38;;;7.90;99.90;;;;;;5038821;28;20032;-86
2023/10/25 03:56:50;;;;;;;63.78;42.03;;;8.40;99.90;;;;;;5054417;28;20040;-86
2023/10/25 03:59:16;;;;;;;62.25;47.80;;;7.00;99.90;;;;;;5037791;28;20143;-86
2023/10/25 04:01:42;;;;;;;61.20;37.58;;;7.40;99.90;;;;;;5055033;28;20128;-86
2023/10/25 04:04:09;;;;;;;48.17;38.00;;;8.00;99.90;;;;;;5037359;28;20051;-85
2023/10/25 04:06:35;;;;;;;53.35;40.85;;;7.40;99.90;;;;;;5038022;28;20180;-86
2023/10/25 04:09:01;;;;;;;53.33;40.97;;;8.10;99.90;;;;;;5054027;28;20211;-85
2023/10/25 04:11:27;;;;;;;51.05;43.90;;;7.30;99.90;;;;;;5054194;28;20091;-86
2023/10/25 04:13:53;;;;;;;61.83;45.38;;;7.40;99.90;;;;;;5037451;28;20051;-85
2023/10/25 04:16:19;;;;;;;58.78;40.88;;;7.40;99.90;;;;;;5053677;28;20098;-86
2023/10/25 04:18:44;;;;;;;50.97;40.47;;;8.40;99.90;;;;;;5038098;28;20048;-86
2023/10/25 04:21:12;;;;;;;57.22;42.72;;;7.40;99.90;;;;;;5053153;28;20491;-85
2023/10/25 04:23:38;;;;;;;55.67;39.88;;;7.30;99.90;;;;;;5037114;28;20045;-86
2023/10/25 04:26:12;;;;;;;71.85;44.55;;;7.30;99.90;;;;;;5052754;28;20099;-86
2023/10/25 04:28:40;;;;;;;;;;;7.20;99.90;;;;;;5037332;28;20098;-86
2023/10/25 04:31:10;;;;;;;51.90;36.45;;;7.70;99.90;;;;;;5036066;28;20023;-85
2023/10/25 04:33:37;;;;;;;53.80;35.65;;;7.20;99.90;;;;;;5037234;28;20055;-85
2023/10/25 04:36:03;;;;;;;46.15;34.92;;;7.10;99.90;;;;;;5052683;28;20037;-86
2023/10/25 04:38:30;;;;;;;60.47;39.47;;;7.10;99.90;;;;;;5053151;28;20041;-86
2023/10/25 04:40:56;;;;;;;57.70;38.90;;;7.10;99.90;;;;;;5036909;28;20033;-86
2023/10/25 04:43:21;;;;;;;59.00;37.53;;;7.10;99.90;;;;;;5036409;28;20033;-85
2023/10/25 04:45:47;;;;;;;54.85;37.67;;;6.20;99.90;;;;;;5052874;28;20044;-86
2023/10/25 04:48:13;;;;;;;49.08;35.10;;;7.20;99.90;;;;;;5053312;28;20045;-86
2023/10/25 04:50:39;;;;;;;54.20;41.65;;;7.20;99.90;;;;;;5036251;28;20203;-85
2023/10/25 04:53:05;;;;;;;41.30;35.60;;;7.00;99.90;;;;;;5053197;28;20120;-85
2023/10/25 04:55:34;;;;;;;50.95;36.28;;;7.90;99.90;;;;;;5052178;28;20122;-85
2023/10/25 04:58:00;;;;;;;44.05;31.02;;;6.90;99.90;;;;;;5034785;28;20541;-86
2023/10/25 05:00:27;;;;;;;55.15;35.08;;;6.90;99.90;;;;;;5049858;28;20119;-85
2023/10/25 05:02:54;;;;;;;63.85;36.33;;;7.60;99.90;;;;;;5033589;28;20147;-86
2023/10/25 05:05:19;;;;;;;51.67;33.88;;;6.60;99.90;;;;;;5032642;28;20041;-85
2023/10/25 05:07:46;;;;;;;46.03;33.40;;;7.20;99.90;;;;;;5033145;28;20055;-86
2023/10/25 05:10:12;;;;;;;51.65;44.00;;;6.80;99.90;;;;;;5033171;28;20073;-86
2023/10/25 05:12:44;;;;;;;49.33;34.42;;;6.80;99.90;;;;;;5032975;28;20051;-86
2023/10/25 05:15:15;;;;;;;46.67;34.40;;;6.80;99.90;;;;;;5033042;28;20045;-86
2023/10/25 05:17:42;;;;;;;53.08;35.90;;;6.80;99.90;;;;;;5033793;28;20402;-86
2023/10/25 05:20:11;;;;;;;55.83;38.17;;;6.80;99.90;;;;;;5049123;28;20423;-85
2023/10/25 05:22:39;;;;;;;50.10;34.72;;;6.80;99.90;;;;;;5049641;28;20041;-86
2023/10/25 05:25:07;;;;;;;52.40;35.80;;;6.80;99.90;;;;;;5033133;28;20086;-86
2023/10/25 05:27:34;;;;;;;59.17;37.60;;;6.60;99.90;;;;;;5049544;28;20041;-85
2023/10/25 05:30:03;;;;;;;50.67;32.38;;;6.80;99.90;;;;;;5032771;28;20491;-85
2023/10/25 05:32:33;;;;;;;54.92;38.58;;;6.80;99.90;;;;;;5049398;28;20044;-85
2023/10/25 05:35:00;;;;;;;55.38;44.58;;;6.80;99.90;;;;;;5032140;28;20064;-86
2023/10/25 05:37:27;;;;;;;50.63;34.55;;;6.80;99.90;;;;;;5050521;28;20048;-86
2023/10/25 05:39:53;;;;;;;52.40;38.42;;;6.80;99.90;;;;;;5053439;28;20144;-85
2023/10/25 05:42:20;;;;;;;45.90;35.80;;;6.80;99.90;;;;;;5053565;28;20083;-85
2023/10/25 05:44:47;;;;;;;51.03;36.75;;;6.80;99.90;;;;;;5036814;28;20041;-86
2023/10/25 05:47:17;;;;;;;52.58;33.85;;;6.80;99.90;;;;;;5038102;28;20072;-86
2023/10/25 05:49:43;;;;;;;51.10;36.95;;;6.80;99.90;;;;;;5053665;28;20403;-86
2023/10/25 05:52:10;;;;;;;51.85;33.38;;;6.70;99.90;;;;;;5053756;28;20044;-84
2023/10/25 05:54:37;;;;;;;47.30;35.15;;;6.70;99.90;;;;;;5036801;28;20037;-86
2023/10/25 05:57:03;;;;;;;43.72;33.50;;;6.70;99.90;;;;;;5037721;28;20052;-85
2023/10/25 05:59:30;;;;;;;49.95;36.70;;;6.70;99.90;;;;;;5053553;28;20086;-85
2023/10/25 06:02:08;;;;;;;63.65;41.20;;;6.70;99.90;;;;;;5054602;28;20079;-86
2023/10/25 06:04:36;;;;;;;52.65;34.03;;;6.70;99.90;;;;;;5036401;28;20040;-86
2023/10/25 06:07:03;;;;;;;59.40;36.60;;;6.70;99.90;;;;;;5037406;28;20076;-86
2023/10/25 06:09:28;;;;;;;42.10;34.17;;;6.70;99.90;;;;;;5053197;28;20037;-85
2023/10/25 06:11:54;;;;;;;57.08;43.10;;;6.70;99.90;;;;;;5053139;28;20052;-85
2023/10/25 06:14:20;;;;;;;58.10;39.78;;;6.70;99.90;;;;;;5053106;28;20080;-85
2023/10/25 06:16:46;;;;;;;59.70;37.72;;;6.60;99.90;;;;;;5036431;28;20087;-85
2023/10/25 06:19:12;;;;;;;50.88;34.13;;;6.70;99.90;;;;;;5053436;28;20052;-85
2023/10/25 06:21:37;;;;;;;53.15;40.72;;;6.70;99.90;;;;;;5052688;28;20131;-85
2023/10/25 06:24:03;;;;;;;52.30;38.60;;;6.50;99.90;;;;;;5036030;28;20246;-86
2023/10/25 06:26:29;;;;;;;49.15;35.83;;;6.70;99.90;;;;;;5036782;28;20037;-85
2023/10/25 06:28:54;;;;;;;54.40;41.40;;;7.80;99.90;;;;;;5053977;28;20109;-85
2023/10/25 06:31:20;;;;;;;49.85;36.55;;;6.70;99.90;;;;;;5053281;28;20037;-86
2023/10/25 06:33:46;;;;;;;44.10;34.22;;;6.70;99.90;;;;;;5053841;28;20112;-85
2023/10/25 06:36:13;;;;;;;53.13;40.72;;;7.90;99.90;;;;;;5037074;28;20060;-85
2023/10/25 06:38:39;;;;;;;43.45;33.38;;;6.70;99.90;;;;;;5037181;28;20285;-85
2023/10/25 06:41:15;;;;;;;51.22;35.67;;;6.70;99.90;;;;;;5036791;28;20045;-85
2023/10/25 06:43:40;;;;;;;53.63;43.13;;;6.70;99.90;;;;;;5053390;28;20045;-86
2023/10/25 06:46:08;;;;;;;56.67;37.22;;;6.80;99.90;;;;;;5053667;28;20051;-85
2023/10/25 06:48:34;;;;;;;53.92;39.45;;;6.30;99.90;;;;;;5037278;28;20052;-85
2023/10/25 06:51:01;;;;;;;65.32;45.22;;;6.80;99.90;;;;;;5037688;28;20029;-86
2023/10/25 06:53:27;;;;;;;42.42;35.95;;;7.30;99.90;;;;;;5037251;28;20131;-86
2023/10/25 06:55:53;;;;;;;58.92;43.97;;;6.80;99.90;;;;;;5036786;28;20076;-86
2023/10/25 06:58:19;;;;;;;60.95;40.40;;;6.80;99.90;;;;;;5054383;28;20056;-85
2023/10/25 07:00:45;;;;;;;54.22;43.03;;;6.80;99.90;;;;;;5037321;28;20037;-85
2023/10/25 07:03:11;;;;;;;54.88;39.35;;;6.00;99.90;;;;;;5053214;28;20463;-84
2023/10/25 07:05:39;;;;;;;62.83;40.92;;;6.90;99.90;;;;;;5036454;28;20052;-85
2023/10/25 07:08:06;;;;;;;50.15;40.00;;;6.90;99.90;;;;;;5053382;28;20033;-85
2023/10/25 07:10:31;;;;;;;64.75;43.45;;;6.90;99.90;;;;;;5037007;28;20071;-86
2023/10/25 07:12:59;;;;;;;53.70;41.45;;;6.90;99.90;;;;;;5053347;28;20041;-85
2023/10/25 07:15:25;;;;;;;64.35;43.97;;;7.00;99.90;;;;;;5036512;28;20041;-85
2023/10/25 07:17:51;;;;;;;57.33;41.13;;;8.30;99.90;;;;;;5054073;28;20045;-86
2023/10/25 07:20:17;;;;;;;73.43;49.72;;;8.10;99.90;;;;;;5037108;28;20048;-85
2023/10/25 07:22:42;;;;;;;50.13;35.63;;;7.90;99.90;;;;;;5055033;28;20036;-85
2023/10/25 07:25:08;;;;;;;64.43;47.58;;;8.40;99.90;;;;;;5038076;28;20043;-85
2023/10/25 07:27:36;;;;;;;63.20;42.42;;;8.00;99.90;;;;;;5054906;28;20033;-85
2023/10/25 07:30:04;;;;;;;47.10;36.63;;;7.50;99.90;;;;;;5037545;28;20033;-85
2023/10/25 07:32:31;;;;;;;61.47;41.65;;;7.10;99.90;;;;;;5037384;28;20052;-85
2023/10/25 07:34:57;;;;;;;46.00;37.22;;;7.70;99.90;;;;;;5037152;28;20059;-86
2023/10/25 07:37:23;;;;;;;50.25;43.67;;;7.20;99.90;;;;;;5036908;28;20064;-85
2023/10/25 07:39:48;;;;;;;58.60;40.85;;;8.50;99.90;;;;;;5038094;28;20044;-86
2023/10/25 07:42:14;;;;;;;69.20;41.05;;;7.20;99.90;;;;;;5039710;28;20037;-86
2023/10/25 07:44:40;;;;;;;62.10;47.22;;;7.70;99.90;;;;;;5039894;28;20076;-86
2023/10/25 07:47:05;;;;;;;54.35;42.30;;;7.30;99.90;;;;;;5056679;28;20048;-85
2023/10/25 07:49:35;;;;;;;56.33;42.85;;;7.30;99.90;;;;;;5056870;28;20037;-85
2023/10/25 07:52:01;;;;;;;49.75;44.15;;;7.00;99.90;;;;;;5039540;28;20284;-85
2023/10/25 07:54:27;;;;;;;47.65;42.08;;;8.10;99.90;;;;;;5039990;28;20064;-85
2023/10/25 07:56:52;;;;;;;52.15;43.15;;;8.60;99.90;;;;;;5056615;28;20044;-86
2023/10/25 07:59:18;;;;;;;54.35;41.30;;;7.40;99.90;;;;;;5039713;28;20103;-86
2023/10/25 08:01:44;;;;;;;51.28;45.05;;;8.50;99.90;;;;;;5066920;28;20075;-86
2023/10/25 08:04:10;;;;;;;50.10;39.80;;;8.70;99.90;;;;;;5059979;28;20052;-86
2023/10/25 08:06:36;;;;;;;52.15;39.42;;;7.60;99.90;;;;;;5076086;28;20040;-85
2023/10/25 08:09:02;;;;;;;53.08;40.95;;;6.90;99.90;;;;;;5077147;28;20087;-85
2023/10/25 08:11:28;;;;;;;50.55;45.08;;;7.70;99.90;;;;;;5059059;28;20581;-85
2023/10/25 08:13:53;;;;;;;51.13;44.63;;;9.00;99.90;;;;;;5059751;28;20041;-86
2023/10/25 08:16:19;;;;;;;49.35;39.42;;;9.10;99.90;;;;;;5076805;28;20403;-85
2023/10/25 08:18:45;;;;;;;51.22;45.10;;;8.70;99.90;;;;;;5059926;28;20040;-86
2023/10/25 08:21:16;;;;;;;45.55;40.42;;;9.20;99.90;;;;;;5060434;28;20138;-85
2023/10/25 08:23:41;;;;;;;53.70;45.85;;;8.00;99.90;;;;;;5059592;28;20082;-85
2023/10/25 08:26:07;;;;;;;46.58;38.42;;;8.00;99.90;;;;;;5076394;28;20033;-86
2023/10/25 08:28:33;;;;;;;57.45;42.80;;;8.10;99.90;;;;;;5059553;28;20402;-86
2023/10/25 08:30:58;;;;;;;54.70;45.17;;;8.50;99.90;;;;;;5059937;28;20047;-85
2023/10/25 08:33:24;;;;;;;49.95;44.58;;;8.20;99.90;;;;;;5076286;28;20072;-85
2023/10/25 08:36:03;;;;;;;43.95;38.22;;;9.30;99.90;;;;;;5077064;28;20094;-86
2023/10/25 08:38:29;;;;;;;45.03;38.92;;;8.00;99.90;;;;;;5076582;28;20032;-85
2023/10/25 08:41:07;;;;;;;49.17;41.05;;;9.70;99.90;;;;;;5076316;28;20127;-85
2023/10/25 08:43:34;;;;;;;54.50;35.70;;;8.60;99.90;;;;;;5059640;28;20425;-86
2023/10/25 08:46:04;;;;;;;57.83;44.95;;;8.60;99.90;;;;;;5075818;28;20040;-85
2023/10/25 08:48:30;;;;;;;50.60;42.50;;;8.80;99.90;;;;;;5059736;28;20051;-84
2023/10/25 08:50:58;;;;;;;48.53;43.50;;;9.40;99.90;;;;;;5075322;28;20036;-85
2023/10/25 08:53:25;;;;;;;51.88;39.53;;;9.10;99.90;;;;;;5075942;28;20041;-85
2023/10/25 08:55:55;;;;;;;48.72;37.72;;;9.10;99.90;;;;;;5075835;28;20082;-85
2023/10/25 08:58:23;;;;;;;41.65;35.05;;;9.70;99.90;;;;;;5058441;28;20045;-85
2023/10/25 09:00:55;;;;;;;43.80;35.90;;;9.70;99.90;;;;;;5058504;28;20406;-85
2023/10/25 09:03:33;;;;;;;58.08;38.95;;;9.40;99.90;;;;;;5059313;28;20132;-85
2023/10/25 09:06:06;;;;;;;40.80;36.50;;;10.20;99.90;;;;;;5059345;28;20042;-85
2023/10/25 09:08:33;;;;;;;43.38;34.67;;;9.50;99.90;;;;;;5076196;28;20131;-86
2023/10/25 09:11:04;;;;;;;39.88;33.78;;;9.60;99.90;;;;;;5075853;28;20036;-86
2023/10/25 09:13:32;;;;;;;36.95;33.22;;;10.50;99.90;;;;;;5076353;28;20041;-85
2023/10/25 09:16:18;;;;;;;36.50;29.50;;;9.80;99.90;;;;;;5075341;28;20532;-85
2023/10/25 09:18:43;;;;;;;30.08;26.63;;;10.30;99.90;;;;;;5059208;28;20391;-85
2023/10/25 09:21:12;;;;;;;39.40;27.80;;;9.70;99.90;;;;;;5060019;28;20047;-86
2023/10/25 09:23:37;;;;;;;33.03;27.73;;;10.00;99.90;;;;;;5059231;28;20036;-85
2023/10/25 09:26:16;;;;;;;33.22;25.75;;;10.50;99.90;;;;;;5059964;28;20133;-86
2023/10/25 09:28:43;;;;;;;32.47;25.52;;;9.90;99.90;;;;;;5076430;28;20028;-86
2023/10/25 09:31:30;;;;;;;23.45;20.08;;;10.50;99.90;;;;;;5060537;28;20067;-85
2023/10/25 09:33:57;;;;;;;22.00;19.38;;;10.90;99.90;;;;;;5077005;28;20067;-85
2023/10/25 09:36:23;;;;;;;30.30;21.50;;;10.70;99.90;;;;;;5076814;28;20131;-86
2023/10/25 09:38:50;;;;;;;26.80;21.52;;;10.10;99.90;;;;;;5076380;28;20375;-86
2023/10/25 09:41:17;;;;;;;27.70;20.10;;;10.10;99.90;;;;;;5060033;28;20063;-84
2023/10/25 09:43:50;;;;;;;25.92;18.67;;;10.40;99.90;;;;;;5060385;28;20040;-85
2023/10/25 09:46:18;;;;;;;26.50;19.50;;;10.30;99.90;;;;;;5060209;28;20039;-84
2023/10/25 09:48:54;;;;;;;19.33;17.17;;;11.30;99.90;;;;;;5060460;28;20075;-86
2023/10/25 09:51:47;;;;;;;24.35;21.63;;;10.50;99.90;;;;;;5060504;28;20032;-86
2023/10/25 09:54:13;;;;;;;24.85;21.88;;;10.70;99.90;;;;;;5060486;28;20051;-87
2023/10/25 09:56:40;;;;;;;23.67;17.52;;;11.10;99.90;;;;;;5077922;28;20302;-86
2023/10/25 09:59:10;;;;;;;20.70;17.08;;;11.00;99.90;;;;;;5060430;28;20051;-85
2023/10/25 10:01:40;;;;;;;22.27;16.85;;;11.00;99.90;;;;;;5060234;28;20036;-85
2023/10/25 10:04:30;;;;;;;21.95;16.95;;;11.20;99.90;;;;;;5060678;28;20126;-85
2023/10/25 10:07:09;;;;;;;21.65;17.67;;;11.80;99.90;;;;;;5077120;28;20048;-85
2023/10/25 10:09:41;;;;;;;18.83;14.95;;;11.70;99.90;;;;;;5077364;28;20033;-85
2023/10/25 10:12:07;;;;;;;18.83;12.80;;;11.40;99.90;;;;;;5061067;28;20094;-86
2023/10/25 10:14:39;;;;;;;16.20;13.00;;;11.70;99.90;;;;;;5060220;28;20047;-86
2023/10/25 10:17:11;;;;;;;19.30;17.23;;;11.50;99.90;;;;;;5056045;28;20490;-86
2023/10/25 10:19:39;;;;;;;21.02;13.90;;;11.80;99.90;;;;;;5070150;28;20510;-85
2023/10/25 10:22:10;;;;;;;15.82;13.35;;;12.10;99.90;;;;;;5070007;28;20436;-86
2023/10/25 10:24:53;;;;;;;19.65;15.82;;;11.80;99.90;;;;;;5052339;28;20040;-86
2023/10/25 10:27:19;;;;;;;19.30;17.05;;;11.80;99.90;;;;;;5069323;28;20041;-86
2023/10/25 10:29:46;;;;;;;24.92;22.52;;;12.00;99.90;;;;;;5069287;28;20052;-86
2023/10/25 10:32:13;;;;;;;15.68;13.05;;;11.90;99.90;;;;;;5069075;28;20041;-86
2023/10/25 10:34:42;;;;;;;18.55;16.50;;;12.60;99.90;;;;;;5053505;28;20148;-85
2023/10/25 10:37:11;;;;;;;19.70;14.02;;;12.20;99.90;;;;;;5068990;28;20052;-85
2023/10/25 10:39:38;;;;;;;19.65;17.35;;;11.80;99.90;;;;;;5052685;28;20135;-86
2023/10/25 10:42:05;;;;;;;18.58;15.25;;;12.20;99.90;;;;;;5069585;28;20064;-85
2023/10/25 10:44:35;;;;;;;20.98;17.33;;;12.20;99.90;;;;;;5052958;28;20127;-86
2023/10/25 10:47:04;;;;;;;23.38;15.25;;;12.30;99.90;;;;;;5053339;28;20421;-85
2023/10/25 10:49:30;;;;;;;21.02;18.25;;;12.20;99.90;;;;;;5069900;28;20033;-86
2023/10/25 10:51:57;;;;;;;19.80;15.52;;;12.20;99.90;;;;;;5052461;28;20287;-86
2023/10/25 10:54:23;;;;;;;18.23;15.32;;;12.20;99.90;;;;;;5068828;28;20045;-85
2023/10/25 10:56:49;;;;;;;19.27;17.35;;;12.20;99.90;;;;;;5069733;28;20442;-86
2023/10/25 10:59:15;;;;;;;18.23;15.73;;;12.30;99.90;;;;;;5052574;28;20105;-86
2023/10/25 11:01:42;;;;;;;19.83;14.15;;;11.70;99.90;;;;;;5052168;28;20086;-86
2023/10/25 11:04:08;;;;;;;17.98;16.20;;;12.30;99.90;;;;;;5052510;28;20055;-85
2023/10/25 11:06:34;;;;;;;18.13;15.27;;;12.30;99.90;;;;;;5052928;28;20045;-86
2023/10/25 11:09:00;;;;;;;22.40;17.33;;;12.40;99.90;;;;;;5068700;28;20512;-86
2023/10/25 11:11:26;;;;;;;16.70;14.93;;;12.50;99.90;;;;;;5069436;28;20040;-86
2023/10/25 11:13:52;;;;;;;20.67;15.07;;;12.60;99.90;;;;;;5054472;28;20040;-85
2023/10/25 11:16:18;;;;;;;18.17;13.85;;;12.60;99.90;;;;;;5056811;28;20428;-86
2023/10/25 11:18:44;;;;;;;15.82;11.55;;;12.80;99.90;;;;;;5073372;28;20040;-85
2023/10/25 11:21:12;;;;;;;14.60;12.13;;;12.70;99.90;;;;;;5072517;28;20085;-86
2023/10/25 11:23:38;;;;;;;14.70;13.02;;;12.70;99.90;;;;;;5056356;28;20127;-86
2023/10/25 11:26:04;;;;;;;20.63;15.05;;;12.40;99.90;;;;;;5072697;28;20123;-85
2023/10/25 11:28:30;;;;;;;19.00;14.23;;;12.50;99.90;;;;;;5072986;28;20220;-85
2023/10/25 11:31:02;;;;;;;17.73;14.57;;;12.50;99.90;;;;;;5072884;28;20047;-85
2023/10/25 11:33:28;;;;;;;17.30;15.55;;;12.80;99.90;;;;;;5072198;28;20067;-85
2023/10/25 11:35:54;;;;;;;21.13;19.30;;;12.50;99.90;;;;;;5055108;28;20040;-86
2023/10/25 11:38:20;;;;;;;16.75;12.80;;;12.50;99.90;;;;;;5055868;28;20044;-85
2023/10/25 11:40:46;;;;;;;15.95;14.13;;;12.40;99.90;;;;;;5072640;28;20401;-85
2023/10/25 11:43:13;;;;;;;17.50;14.05;;;12.50;99.90;;;;;;5072775;28;20056;-86
2023/10/25 11:45:40;;;;;;;16.33;14.73;;;12.40;99.90;;;;;;5055954;28;20131;-85
2023/10/25 11:48:09;;;;;;;17.35;13.57;;;12.50;99.90;;;;;;5072925;28;20044;-86
2023/10/25 11:50:35;;;;;;;16.63;14.95;;;12.70;99.90;;;;;;5054837;28;20040;-85
2023/10/25 11:53:01;;;;;;;15.50;14.00;;;12.40;99.90;;;;;;5055937;28;20045;-85
2023/10/25 11:55:27;;;;;;;15.13;13.63;;;12.50;99.90;;;;;;5055737;28;20045;-85
2023/10/25 11:57:53;;;;;;;15.70;14.15;;;12.50;99.90;;;;;;5071707;28;20041;-86
2023/10/25 12:00:19;;;;;;;16.23;13.63;;;12.40;99.90;;;;;;5055199;28;20111;-86
2023/10/25 12:02:45;;;;;;;21.33;19.38;;;12.60;99.90;;;;;;5072168;28;20124;-85
2023/10/25 12:05:12;;;;;;;15.48;12.55;;;12.40;99.90;;;;;;5071656;28;20050;-86
2023/10/25 12:07:38;;;;;;;21.60;19.67;;;12.20;99.90;;;;;;5072251;28;20048;-85
2023/10/25 12:10:04;;;;;;;18.13;16.27;;;13.00;99.90;;;;;;5072549;28;20406;-85
2023/10/25 12:12:30;;;;;;;18.90;13.73;;;12.40;99.90;;;;;;5072089;28;20566;-86
2023/10/25 12:14:57;;;;;;;16.75;15.15;;;12.30;99.90;;;;;;5054797;28;20041;-85
2023/10/25 12:17:23;;;;;;;17.73;13.75;;;12.30;99.90;;;;;;5054367;28;20040;-86
2023/10/25 12:19:51;;;;;;;15.00;12.32;;;12.60;99.90;;;;;;5054926;28;20039;-86
2023/10/25 12:22:18;;;;;;;15.40;13.93;;;12.30;99.90;;;;;;5055276;28;20044;-85
2023/10/25 12:24:46;;;;;;;18.52;16.73;;;12.40;99.90;;;;;;5070789;28;20075;-85
2023/10/25 12:27:12;;;;;;;19.88;14.95;;;12.50;99.90;;;;;;5054335;28;20037;-85
2023/10/25 12:29:39;;;;;;;16.77;14.15;;;12.30;99.90;;;;;;5070925;28;20086;-85
2023/10/25 12:32:05;;;;;;;17.70;15.05;;;12.40;99.90;;;;;;5071159;28;20047;-86
2023/10/25 12:34:31;;;;;;;16.80;14.98;;;12.30;99.90;;;;;;5070940;28;20049;-86